Weather at Srpci Airfield

Public forecast

Using degrees Celsius for public forecast. Weather courtesy of forecast.io.

Closest aviation weather report (METAR) to Srpci Airfield

Closest report is Ohrid St. Paul the Apostle Airport, 30.1 nm (55.7 km) W. Retrieved 2022/01/17 16:00 UTC (15 minutes ago):

LWOH 171600Z 31005KT 9999 BKN040 02/M01 Q1019

Closest aviation forecast (TAF) to Srpci Airfield

Closest forecast is Ohrid St. Paul the Apostle Airport, 30.1 nm (55.7 km) W. Retrieved 2022/01/17 15:30 UTC (45 minutes ago):

TAF LWOH 171430Z 1715/1815 32006KT 9999 BKN050 TEMPO 1715/1717 -RA TEMPO 1720/1802 5000 -SN OVC035